Time;durP1;ratioP1;P1;durP2;ratioP2;P2;SDS_P1;SDS_P2;PMS_P1;PMS_P2;Temp;Humidity;BMP_temperature;BMP_pressure;BME280_temperature;BME280_humidity;BME280_pressure;Samples;Min_cycle;Max_cycle;Signal;HPM_P1;HPM_P2
2024/03/05 00:01:19;;;;;;;;;;;6.80;99.90;;;;;;8458581;28;19923;-72
2024/03/05 00:05:21;;;;;;;;;;;6.80;99.90;;;;;;8455464;28;19942;-72
2024/03/05 00:09:22;;;;;;;;;;;6.80;99.90;;;;;;8456302;28;19927;-72
2024/03/05 00:13:24;;;;;;;;;;;6.70;99.90;;;;;;8455804;28;19920;-72
2024/03/05 00:17:26;;;;;;;;;;;6.70;99.90;;;;;;8454222;28;19919;-72
2024/03/05 00:21:28;;;;;;;;;;;6.70;99.90;;;;;;8457840;28;19919;-72
2024/03/05 00:25:48;;;;;;;;;;;6.60;99.90;;;;;;8453799;28;19920;-72
2024/03/05 00:29:49;;;;;;;;;;;6.50;99.90;;;;;;8457681;28;20309;-73
2024/03/05 00:33:51;;;;;;;;;;;6.40;99.90;;;;;;8455690;28;20428;-72
2024/03/05 00:37:53;;;;;;;;;;;6.30;99.90;;;;;;8456338;28;19919;-72
2024/03/05 00:41:55;;;;;;;;;;;6.30;99.90;;;;;;8456626;28;19932;-72
2024/03/05 00:45:56;;;;;;;;;;;6.20;99.90;;;;;;8454506;28;19920;-72
2024/03/05 00:49:59;;;;;;;;;;;6.20;99.90;;;;;;8455245;28;19920;-72
2024/03/05 00:54:01;;;;;;;;;;;6.10;99.90;;;;;;8457388;28;20358;-72
2024/03/05 00:58:04;;;;;;;;;;;6.10;99.90;;;;;;8456102;28;19955;-72
2024/03/05 01:02:06;;;;;;;;;;;6.10;99.90;;;;;;8454832;28;19920;-72
2024/03/05 01:06:07;;;;;;;;;;;6.00;99.90;;;;;;8454982;28;19961;-72
2024/03/05 01:10:09;;;;;;;;;;;6.00;99.90;;;;;;8456032;28;19920;-72
2024/03/05 01:14:14;;;;;;;;;;;6.00;99.90;;;;;;8451789;28;20275;-72
2024/03/05 01:18:16;;;;;;;;;;;5.90;99.90;;;;;;8454091;28;19919;-72
2024/03/05 01:22:18;;;;;;;;;;;5.90;99.90;;;;;;8455960;28;21678;-72
2024/03/05 01:26:21;;;;;;;;;;;5.80;99.90;;;;;;8455819;28;19920;-72
2024/03/05 01:30:23;;;;;;;;;;;5.70;99.90;;;;;;8450630;28;19920;-72
2024/03/05 01:34:25;;;;;;;;;;;5.70;99.90;;;;;;8452091;28;19920;-72
2024/03/05 01:38:27;;;;;;;;;;;5.60;99.90;;;;;;8453435;28;20340;-72
2024/03/05 01:42:29;;;;;;;;;;;5.50;99.90;;;;;;8456471;28;19931;-72
2024/03/05 01:46:31;;;;;;;;;;;5.40;99.90;;;;;;8454915;28;19924;-72
2024/03/05 01:50:35;;;;;;;;;;;5.40;99.90;;;;;;8456252;28;19923;-72
2024/03/05 01:54:36;;;;;;;;;;;5.30;99.90;;;;;;8461412;28;19923;-72
2024/03/05 01:58:39;;;;;;;;;;;5.30;99.90;;;;;;8461310;28;19965;-72
2024/03/05 02:02:42;;;;;;;;;;;5.30;99.90;;;;;;8461870;27;19924;-72
2024/03/05 02:06:44;;;;;;;;;;;5.20;99.90;;;;;;8459170;28;19919;-72
2024/03/05 02:10:47;;;;;;;;;;;5.20;99.90;;;;;;8460681;28;20459;-72
2024/03/05 02:14:49;;;;;;;;;;;5.20;99.90;;;;;;8453199;28;19927;-72
2024/03/05 02:18:50;;;;;;;;;;;5.20;99.90;;;;;;8449986;28;19924;-72
2024/03/05 02:22:52;;;;;;;;;;;5.10;99.90;;;;;;8457755;28;19927;-72
2024/03/05 02:26:54;;;;;;;;;;;5.10;99.90;;;;;;8458571;28;19927;-72
2024/03/05 02:30:56;;;;;;;;;;;5.10;99.90;;;;;;8457902;28;19919;-73
2024/03/05 02:34:58;;;;;;;;;;;5.00;99.90;;;;;;8485113;27;19924;-72
2024/03/05 02:39:00;;;;;;;;;;;5.00;99.90;;;;;;8458566;27;19963;-72
2024/03/05 02:43:02;;;;;;;;;;;5.00;99.90;;;;;;8459877;28;19968;-72
2024/03/05 02:47:04;;;;;;;;;;;5.00;99.90;;;;;;8461292;28;19920;-72
2024/03/05 02:51:07;;;;;;;;;;;5.00;99.90;;;;;;8458879;28;19919;-72
2024/03/05 02:55:12;;;;;;;;;;;5.00;99.90;;;;;;8460026;28;19968;-72
2024/03/05 02:59:14;;;;;;;;;;;5.00;99.90;;;;;;8456891;28;20162;-72
2024/03/05 03:03:16;;;;;;;;;;;5.00;99.90;;;;;;8458956;28;19919;-72
2024/03/05 03:07:18;;;;;;;;;;;5.10;99.90;;;;;;8459789;28;19980;-72
2024/03/05 03:11:20;;;;;;;;;;;5.10;99.90;;;;;;8452280;27;19919;-72
2024/03/05 03:15:24;;;;;;;;;;;5.20;99.90;;;;;;8449108;28;19923;-72
2024/03/05 03:19:26;;;;;;;;;;;5.20;99.90;;;;;;8456598;28;19924;-72
2024/03/05 03:23:27;;;;;;;;;;;5.20;99.90;;;;;;8457966;28;19919;-72
2024/03/05 03:27:32;;;;;;;;;;;5.20;99.90;;;;;;8460666;28;19920;-73
2024/03/05 03:31:33;;;;;;;;;;;5.20;99.90;;;;;;8452554;28;19935;-72
2024/03/05 03:35:37;;;;;;;;;;;5.20;99.90;;;;;;8460912;28;20367;-72
2024/03/05 03:44:42;;;;;;;;;;;5.40;99.90;;;;;;8458978;28;19915;-72
2024/03/05 03:48:43;;;;;;;;;;;5.50;99.90;;;;;;8457450;28;19935;-72
2024/03/05 03:52:45;;;;;;;;;;;5.60;99.90;;;;;;8454198;28;19962;-72
2024/03/05 03:56:48;;;;;;;;;;;5.70;99.90;;;;;;8459011;28;19967;-72
2024/03/05 04:05:33;;;;;;;;;;;5.80;99.90;;;;;;8453214;28;19926;-72
2024/03/05 04:09:35;;;;;;;;;;;5.90;99.90;;;;;;8459418;28;20258;-72
2024/03/05 04:13:38;;;;;;;;;;;6.00;99.90;;;;;;8453866;28;19923;-72
2024/03/05 04:17:41;;;;;;;;;;;6.00;99.90;;;;;;8456575;28;19924;-72
2024/03/05 04:21:43;;;;;;;;;;;6.10;99.90;;;;;;8454158;28;19923;-72
2024/03/05 04:25:47;;;;;;;;;;;6.10;99.90;;;;;;8455328;28;19980;-72
2024/03/05 04:29:53;;;;;;;;;;;6.20;99.90;;;;;;8450142;28;19920;-72
2024/03/05 04:44:02;;;;;;;;;;;6.30;99.90;;;;;;8443397;28;19965;-72
2024/03/05 04:48:04;;;;;;;;;;;6.30;99.90;;;;;;8448535;28;19919;-72
2024/03/05 04:52:09;;;;;;;;;;;6.40;99.90;;;;;;8453005;28;19972;-72
2024/03/05 04:56:12;;;;;;;;;;;6.40;99.90;;;;;;8454110;27;19920;-72
2024/03/05 05:00:20;;;;;;;;;;;6.40;99.90;;;;;;8455904;28;20017;-72
2024/03/05 05:04:29;;;;;;;;;;;6.40;99.90;;;;;;8457282;28;19926;-72
2024/03/05 05:08:31;;;;;;;;;;;6.40;99.90;;;;;;8458910;28;19920;-72
2024/03/05 05:12:33;;;;;;;;;;;6.40;99.90;;;;;;8461564;28;19920;-72
2024/03/05 05:16:35;;;;;;;;;;;6.40;99.90;;;;;;8455028;28;19920;-72
2024/03/05 05:20:37;;;;;;;;;;;6.40;99.90;;;;;;8460196;28;19980;-72
2024/03/05 05:24:38;;;;;;;;;;;6.30;99.90;;;;;;8461013;28;19964;-72
2024/03/05 05:28:40;;;;;;;;;;;6.40;99.90;;;;;;8465331;28;20276;-72
2024/03/05 05:32:42;;;;;;;;;;;6.40;99.90;;;;;;8460318;28;19926;-72
2024/03/05 05:36:44;;;;;;;18.30;8.80;;;6.40;99.90;;;;;;8463877;28;19927;-72
2024/03/05 05:40:46;;;;;;;19.77;9.00;;;6.50;99.90;;;;;;8465796;28;20047;-73
2024/03/05 05:44:47;;;;;;;18.38;8.82;;;6.50;99.90;;;;;;8456005;27;20048;-72
2024/03/05 05:48:50;;;;;;;19.70;9.60;;;6.50;99.90;;;;;;8462758;28;20040;-73
2024/03/05 05:52:52;;;;;;;20.95;9.38;;;6.60;99.90;;;;;;8459101;28;19930;-72
2024/03/05 05:56:55;;;;;;;18.47;9.07;;;6.60;99.90;;;;;;8462648;27;20051;-72
2024/03/05 06:00:57;;;;;;;;;;;6.60;99.90;;;;;;8461691;28;19927;-73
2024/03/05 06:05:02;;;;;;;;;;;6.60;99.90;;;;;;8461146;28;19919;-73
2024/03/05 06:09:08;;;;;;;;;;;6.70;99.90;;;;;;8461457;27;19970;-73
2024/03/05 06:13:10;;;;;;;;;;;6.70;99.90;;;;;;8463308;28;19959;-72
2024/03/05 06:17:12;;;;;;;;;;;6.70;99.90;;;;;;8448485;28;19927;-72
2024/03/05 06:21:13;;;;;;;;;;;6.70;99.90;;;;;;8462289;28;20280;-72
2024/03/05 06:25:18;;;;;;;;;;;6.70;99.90;;;;;;8461795;28;19924;-72
2024/03/05 06:29:20;;;;;;;;;;;6.70;99.90;;;;;;8461814;27;19919;-72
2024/03/05 06:33:22;;;;;;;;;;;6.70;99.90;;;;;;8462466;28;19919;-72
2024/03/05 06:37:24;;;;;;;;;;;6.70;99.90;;;;;;8460214;28;19924;-72
2024/03/05 06:41:27;;;;;;;;;;;6.70;99.90;;;;;;8463015;28;19920;-72
2024/03/05 06:45:29;;;;;;;;;;;6.70;99.90;;;;;;8460821;28;20279;-72
2024/03/05 06:49:38;;;;;;;;;;;6.80;99.90;;;;;;8463193;28;19924;-72
2024/03/05 06:58:07;;;;;;;;;;;6.90;99.90;;;;;;8461085;28;19920;-72
2024/03/05 07:02:09;;;;;;;;;;;6.90;99.90;;;;;;8461253;27;19924;-72
2024/03/05 07:06:12;;;;;;;;;;;7.00;99.90;;;;;;8461686;28;19924;-72
2024/03/05 07:10:15;;;;;;;;;;;7.10;99.90;;;;;;8461229;28;19920;-72
2024/03/05 07:14:48;;;;;;;;;;;7.10;99.90;;;;;;8458781;28;19919;-72
2024/03/05 07:18:53;;;;;;;;;;;7.20;99.90;;;;;;8452940;28;19947;-72
2024/03/05 07:22:54;;;;;;;;;;;7.20;99.90;;;;;;8460527;28;19949;-73
2024/03/05 07:26:56;;;;;;;;;;;7.20;99.90;;;;;;8461942;28;20290;-73
2024/03/05 07:31:05;;;;;;;;;;;7.30;99.90;;;;;;8457594;28;19920;-72
2024/03/05 07:35:08;;;;;;;;;;;7.30;99.90;;;;;;8461291;28;20271;-72
2024/03/05 07:39:11;;;;;;;;;;;7.30;99.90;;;;;;8461140;28;20431;-73
2024/03/05 07:43:13;;;;;;;;;;;7.40;99.90;;;;;;8460060;27;19919;-72
2024/03/05 07:47:15;;;;;;;32.42;13.35;;;7.40;99.90;;;;;;8458971;28;19919;-72
2024/03/05 07:51:17;;;;;;;30.60;13.23;;;7.40;99.90;;;;;;8457226;28;20062;-72
2024/03/05 07:55:28;;;;;;;;;;;7.40;99.90;;;;;;8459998;28;20050;-72
2024/03/05 07:59:32;;;;;;;;;;;7.40;99.90;;;;;;8451569;28;20604;-73
2024/03/05 08:03:34;;;;;;;;;;;7.40;99.90;;;;;;8446417;28;19920;-72
2024/03/05 08:07:36;;;;;;;31.45;14.38;;;7.40;99.90;;;;;;8456590;28;20433;-73
2024/03/05 08:11:39;;;;;;;30.35;14.23;;;7.40;99.90;;;;;;8452732;28;20043;-72
2024/03/05 08:15:41;;;;;;;30.80;12.95;;;7.40;99.90;;;;;;8450517;28;20055;-72
2024/03/05 08:19:42;;;;;;;32.60;15.05;;;7.40;99.90;;;;;;8456577;28;20100;-72
2024/03/05 08:23:44;;;;;;;29.20;13.48;;;7.40;99.90;;;;;;8456141;28;20463;-72
2024/03/05 08:27:52;;;;;;;35.08;14.85;;;7.50;99.90;;;;;;8453491;28;20054;-72
2024/03/05 08:31:54;;;;;;;;;;;7.50;99.90;;;;;;8447934;28;20057;-72
2024/03/05 08:35:56;;;;;;;30.20;13.00;;;7.60;99.90;;;;;;8455876;28;20381;-72
2024/03/05 08:39:58;;;;;;;30.67;13.77;;;7.70;99.90;;;;;;8447675;28;20396;-72
2024/03/05 08:44:00;;;;;;;32.63;13.23;;;7.70;99.90;;;;;;8452763;28;20057;-72
2024/03/05 08:48:02;;;;;;;31.70;13.57;;;7.70;99.90;;;;;;8454480;28;20058;-72
2024/03/05 08:52:04;;;;;;;30.30;13.30;;;7.80;99.90;;;;;;8456318;28;20050;-72
2024/03/05 08:56:07;;;;;;;29.88;13.57;;;7.80;99.90;;;;;;8449317;28;20093;-72
2024/03/05 09:00:20;;;;;;;30.60;13.40;;;7.80;99.90;;;;;;8454671;28;20130;-72
2024/03/05 09:04:41;;;;;;;31.60;13.40;;;7.80;99.90;;;;;;8456622;28;20075;-72
2024/03/05 09:08:43;;;;;;;32.15;14.23;;;7.80;99.90;;;;;;8456402;28;20059;-72
2024/03/05 09:12:46;;;;;;;33.47;14.77;;;7.80;99.90;;;;;;8456416;28;20499;-72
2024/03/05 09:16:47;;;;;;;26.83;13.60;;;7.90;99.90;;;;;;8449200;28;20046;-72
2024/03/05 09:20:49;;;;;;;34.13;15.05;;;7.90;99.90;;;;;;8453746;28;20060;-72
2024/03/05 09:24:51;;;;;;;32.90;14.43;;;8.00;99.90;;;;;;8456589;28;20104;-73
2024/03/05 09:28:53;;;;;;;;;;;8.00;99.90;;;;;;8462066;28;19935;-73
2024/03/05 09:32:56;;;;;;;;;;;8.10;99.90;;;;;;8457359;28;19923;-72
2024/03/05 09:36:58;;;;;;;;;;;8.10;99.90;;;;;;8456768;28;20418;-72
2024/03/05 09:41:01;;;;;;;;;;;8.20;99.90;;;;;;8455387;28;20333;-72
2024/03/05 09:45:06;;;;;;;;;;;8.20;99.90;;;;;;8458068;28;19927;-73
2024/03/05 09:49:10;;;;;;;;;;;8.30;99.90;;;;;;8448631;28;19924;-72
2024/03/05 09:53:22;;;;;;;;;;;8.40;99.90;;;;;;8455391;28;19924;-72
2024/03/05 09:57:24;;;;;;;;;;;8.40;99.90;;;;;;8458550;28;19924;-72
2024/03/05 10:01:26;;;;;;;;;;;8.40;99.90;;;;;;8451788;28;19923;-73
2024/03/05 10:05:28;;;;;;;;;;;8.40;99.90;;;;;;8457347;28;19969;-72
2024/03/05 10:09:30;;;;;;;;;;;8.40;99.90;;;;;;8456183;28;19923;-73
2024/03/05 10:13:32;;;;;;;;;;;8.50;99.90;;;;;;8459121;28;20298;-72
2024/03/05 10:17:44;;;;;;;;;;;8.50;99.90;;;;;;8459558;28;20225;-72
2024/03/05 10:21:49;;;;;;;;;;;8.50;99.90;;;;;;8458600;28;20050;-73
2024/03/05 10:25:51;;;;;;;;;;;8.50;99.90;;;;;;8475440;27;19930;-73
2024/03/05 10:29:52;;;;;;;;;;;8.60;99.90;;;;;;8474964;27;19923;-72
2024/03/05 10:33:56;;;;;;;;;;;8.60;99.90;;;;;;8467672;27;19939;-72
2024/03/05 10:38:08;;;;;;;;;;;8.60;99.90;;;;;;8474763;27;19939;-72
2024/03/05 10:42:11;;;;;;;;;;;8.70;99.90;;;;;;8471575;27;20379;-72
2024/03/05 10:46:13;;;;;;;;;;;8.70;99.90;;;;;;8469448;27;19924;-73
2024/03/05 10:50:17;;;;;;;;;;;8.80;99.90;;;;;;8465671;27;19957;-73
2024/03/05 10:54:20;;;;;;;;;;;8.80;99.90;;;;;;8458556;27;19924;-73
2024/03/05 10:58:57;;;;;;;;;;;8.90;99.90;;;;;;8468028;27;20390;-72
2024/03/05 11:02:43;;;;;;;;;;;9.00;99.90;;;;;;8464059;27;20364;-73
2024/03/05 11:06:47;;;;;;;;;;;9.10;99.90;;;;;;8472811;27;20052;-73
2024/03/05 11:11:09;;;;;;;;;;;9.10;99.90;;;;;;8473358;27;19934;-72
2024/03/05 11:15:12;;;;;;;;;;;9.20;99.90;;;;;;8468369;27;19950;-72
2024/03/05 11:19:15;;;;;;;;;;;9.30;99.90;;;;;;8463828;27;20295;-72
2024/03/05 11:23:17;;;;;;;;;;;9.30;99.90;;;;;;8476274;27;20343;-72
2024/03/05 11:27:22;;;;;;;;;;;9.30;99.90;;;;;;8466063;27;20379;-72
2024/03/05 11:31:26;;;;;;;;;;;9.30;99.90;;;;;;8468506;27;19931;-72
2024/03/05 11:35:30;;;;;;;;;;;9.20;99.90;;;;;;8468870;27;20013;-72
2024/03/05 11:39:31;;;;;;;;;;;9.10;99.90;;;;;;8458320;27;19923;-72
2024/03/05 11:43:34;;;;;;;;;;;9.00;99.90;;;;;;8457699;28;19955;-72
2024/03/05 11:47:36;;;;;;;;;;;8.90;99.90;;;;;;8457789;28;19950;-72
2024/03/05 11:51:40;;;;;;;;;;;8.90;99.90;;;;;;8457620;28;19923;-72
2024/03/05 11:55:42;;;;;;;;;;;8.80;99.90;;;;;;8457933;28;20298;-72
2024/03/05 11:59:43;;;;;;;;;;;8.80;99.90;;;;;;8455654;28;19928;-72
2024/03/05 12:03:45;;;;;;;;;;;8.80;99.90;;;;;;8455844;28;19927;-72
2024/03/05 12:08:00;;;;;;;;;;;8.80;99.90;;;;;;8457152;28;19932;-72
2024/03/05 12:12:11;;;;;;;;;;;8.90;99.90;;;;;;8455573;28;20291;-72
2024/03/05 12:16:14;;;;;;;;;;;9.00;99.90;;;;;;8452067;28;19979;-72
2024/03/05 12:20:19;;;;;;;;;;;9.00;99.90;;;;;;8423496;28;19927;-72
2024/03/05 12:24:24;;;;;;;;;;;9.10;99.90;;;;;;8422614;28;19982;-72
2024/03/05 12:28:25;;;;;;;;;;;9.10;99.90;;;;;;8427827;28;19928;-72
2024/03/05 12:32:27;;;;;;;;;;;9.20;99.90;;;;;;8426018;28;19932;-72
2024/03/05 12:36:29;;;;;;;;;;;9.30;99.90;;;;;;8426328;28;19928;-72
2024/03/05 12:40:31;;;;;;;;;;;9.30;99.90;;;;;;8425398;28;19947;-72
2024/03/05 12:44:33;;;;;;;;;;;9.40;99.90;;;;;;8427951;28;20371;-72
2024/03/05 12:48:36;;;;;;;;;;;9.40;99.90;;;;;;8429448;28;19928;-72
2024/03/05 12:52:37;;;;;;;;;;;9.50;99.90;;;;;;8421743;28;20406;-72
2024/03/05 12:56:40;;;;;;;;;;;9.50;99.90;;;;;;8422019;27;19928;-72
2024/03/05 13:00:42;;;;;;;;;;;9.50;99.90;;;;;;8419143;28;19943;-72
2024/03/05 13:04:44;;;;;;;;;;;9.40;99.90;;;;;;8423643;28;19928;-72
2024/03/05 13:08:47;;;;;;;;;;;9.40;99.90;;;;;;8422547;28;19928;-72
2024/03/05 13:12:51;;;;;;;;;;;9.30;99.90;;;;;;8422412;28;20410;-72
2024/03/05 13:16:52;;;;;;;;;;;9.30;99.90;;;;;;8456551;27;20006;-72
2024/03/05 13:20:55;;;;;;;;;;;9.20;99.90;;;;;;8423414;28;19971;-72
2024/03/05 13:24:57;;;;;;;;;;;9.20;99.90;;;;;;8429345;28;20575;-72
2024/03/05 13:29:02;;;;;;;;;;;9.20;99.90;;;;;;8428568;28;20399;-72
2024/03/05 13:33:04;;;;;;;;;;;9.30;99.90;;;;;;8420642;28;19977;-72
2024/03/05 13:37:06;;;;;;;;;;;9.30;99.90;;;;;;8419772;28;19924;-72
2024/03/05 13:41:08;;;;;;;;;;;9.30;99.90;;;;;;8429480;28;19924;-72
2024/03/05 13:45:12;;;;;;;;;;;9.30;99.90;;;;;;8421862;28;19932;-72
2024/03/05 13:49:39;;;;;;;;;;;9.30;99.90;;;;;;8428898;28;19932;-72
2024/03/05 13:53:40;;;;;;;;;;;9.40;99.90;;;;;;8430388;28;19931;-72
2024/03/05 13:57:42;;;;;;;;;;;9.40;99.90;;;;;;8425874;28;19985;-72
2024/03/05 14:01:44;;;;;;;;;;;9.50;99.90;;;;;;8429816;27;19931;-72
2024/03/05 14:05:46;;;;;;;;;;;9.50;99.90;;;;;;8424765;28;19934;-72
2024/03/05 14:09:48;;;;;;;;;;;9.50;99.90;;;;;;8430060;28;19967;-72
2024/03/05 14:13:50;;;;;;;;;;;9.50;99.90;;;;;;8426316;28;19947;-72
2024/03/05 14:17:51;;;;;;;;;;;9.50;99.90;;;;;;8432505;28;19973;-72
2024/03/05 14:21:54;;;;;;;;;;;9.50;99.90;;;;;;8428850;28;20009;-72
2024/03/05 14:25:56;;;;;;;;;;;9.50;99.90;;;;;;8429096;28;19985;-72
2024/03/05 14:29:58;;;;;;;;;;;9.50;99.90;;;;;;8425765;28;20393;-72
2024/03/05 14:33:59;;;;;;;;;;;9.60;99.90;;;;;;8427637;27;20418;-72
2024/03/05 14:38:01;;;;;;;;;;;9.60;99.90;;;;;;8428486;28;19924;-72
2024/03/05 14:42:03;;;;;;;;;;;9.70;99.90;;;;;;8429404;28;19928;-72
2024/03/05 14:46:05;;;;;;;;;;;9.70;99.90;;;;;;8427097;28;19947;-72
2024/03/05 14:50:10;;;;;;;;;;;9.70;99.90;;;;;;8424729;28;19924;-72
2024/03/05 14:54:12;;;;;;;;;;;9.80;99.90;;;;;;8429274;28;20045;-72
2024/03/05 14:58:14;;;;;;;;;;;9.80;99.90;;;;;;8426102;28;20363;-72
2024/03/05 15:02:16;;;;;;;;;;;9.80;99.90;;;;;;8435389;27;20357;-72
2024/03/05 15:06:17;;;;;;;;;;;9.90;99.90;;;;;;8428755;27;19928;-72
2024/03/05 15:10:21;;;;;;;;;;;9.90;99.90;;;;;;8426371;28;19939;-72
2024/03/05 15:19:28;;;;;;;;;;;10.00;99.90;;;;;;8430493;28;19963;-73
2024/03/05 15:23:29;;;;;;;;;;;9.90;99.90;;;;;;8425278;28;19938;-73
2024/03/05 15:27:31;;;;;;;;;;;10.00;99.90;;;;;;8426111;28;20265;-72
2024/03/05 15:31:33;;;;;;;;;;;9.90;99.90;;;;;;8425660;28;20280;-72
2024/03/05 15:35:35;;;;;;;;;;;9.90;99.90;;;;;;8424425;27;20398;-72
2024/03/05 15:39:36;;;;;;;;;;;9.90;99.90;;;;;;8424850;28;20051;-72
2024/03/05 15:43:38;;;;;;;;;;;9.90;99.90;;;;;;8425470;28;19932;-72
2024/03/05 15:47:41;;;;;;;;;;;9.90;99.90;;;;;;8427189;28;20383;-72
2024/03/05 15:51:42;;;;;;;;;;;9.90;99.90;;;;;;8435071;28;19928;-72
2024/03/05 15:55:45;;;;;;;;;;;9.80;99.90;;;;;;8432638;28;19932;-72
2024/03/05 16:04:51;;;;;;;;;;;9.70;99.90;;;;;;8421533;28;20037;-72
2024/03/05 16:09:19;;;;;;;;;;;9.70;99.90;;;;;;8434364;28;20307;-72
2024/03/05 16:13:21;;;;;;;;;;;9.60;99.90;;;;;;8417017;28;19990;-72
2024/03/05 16:17:44;;;;;;;;;;;9.60;99.90;;;;;;8426423;27;19977;-72
2024/03/05 16:21:46;;;;;;;;;;;9.60;99.90;;;;;;8422859;28;19981;-72
2024/03/05 16:25:51;;;;;;;;;;;9.60;99.90;;;;;;8424734;28;20387;-72
2024/03/05 16:29:52;;;;;;;;;;;9.60;99.90;;;;;;8422100;28;20278;-72
2024/03/05 16:33:54;;;;;;;;;;;9.60;99.90;;;;;;8454477;27;19928;-72
2024/03/05 16:37:56;;;;;;;;;;;9.60;99.90;;;;;;8426372;28;19968;-72
2024/03/05 16:47:02;;;;;;;;;;;9.50;99.90;;;;;;8423872;28;20000;-72
2024/03/05 16:51:04;;;;;;;;;;;9.40;99.90;;;;;;8421256;28;19974;-72
2024/03/05 16:55:06;;;;;;;;;;;9.40;99.90;;;;;;8422904;27;19981;-72
2024/03/05 16:59:08;;;;;;;;;;;9.40;99.90;;;;;;8421857;28;20367;-72
2024/03/05 17:03:19;;;;;;;;;;;9.30;99.90;;;;;;8423178;27;20011;-72
2024/03/05 17:17:27;;;;;;;;;;;9.20;99.90;;;;;;8419429;28;19950;-72
2024/03/05 17:21:29;;;;;;;;;;;9.20;99.90;;;;;;8426886;28;19924;-72
2024/03/05 17:25:34;;;;;;;;;;;9.10;99.90;;;;;;8422714;28;19924;-72
2024/03/05 17:29:36;;;;;;;;;;;9.10;99.90;;;;;;8426035;28;19924;-72
2024/03/05 17:33:38;;;;;;;;;;;9.00;99.90;;;;;;8416334;28;24182;-72
2024/03/05 17:37:40;;;;;;;;;;;9.00;99.90;;;;;;8424417;28;19935;-72
2024/03/05 17:46:45;;;;;;;;;;;8.90;99.90;;;;;;8420112;28;19954;-72
2024/03/05 17:50:47;;;;;;;;;;;8.80;99.90;;;;;;8426694;28;19959;-72
2024/03/05 17:54:51;;;;;;;;;;;8.80;99.90;;;;;;8418917;28;19928;-72
2024/03/05 17:58:52;;;;;;;;;;;8.70;99.90;;;;;;8425370;28;19951;-72
2024/03/05 18:02:56;;;;;;;;;;;8.70;99.90;;;;;;8420069;28;19932;-72
2024/03/05 18:12:02;;;;;;;;;;;8.70;99.90;;;;;;8426363;28;19927;-72
2024/03/05 18:16:03;;;;;;;;;;;8.70;99.90;;;;;;8426765;28;19935;-72
2024/03/05 18:20:09;;;;;;;;;;;8.60;99.90;;;;;;8420556;28;19938;-72
2024/03/05 18:24:12;;;;;;;;;;;8.60;99.90;;;;;;8425471;28;20010;-72
2024/03/05 18:28:19;;;;;;;;;;;8.60;99.90;;;;;;8424300;28;19946;-72
2024/03/05 18:37:24;;;;;;;;;;;8.60;99.90;;;;;;8427585;28;19922;-72
2024/03/05 18:41:26;;;;;;;;;;;8.50;99.90;;;;;;8427890;28;19928;-72
2024/03/05 18:45:29;;;;;;;;;;;8.50;99.90;;;;;;8427219;28;19931;-72
2024/03/05 18:49:31;;;;;;;;;;;8.40;99.90;;;;;;8428879;28;20328;-72
2024/03/05 18:53:33;;;;;;;;;;;8.40;99.90;;;;;;8430941;28;19923;-72
2024/03/05 18:57:42;;;;;;;;;;;8.30;99.90;;;;;;8435265;28;19932;-72
2024/03/05 19:01:45;;;;;;;;;;;8.20;99.90;;;;;;8427525;28;20268;-72
2024/03/05 19:05:47;;;;;;;;;;;8.10;99.90;;;;;;8435576;28;21373;-72
2024/03/05 19:09:49;;;;;;;;;;;8.10;99.90;;;;;;8424462;28;19928;-72
2024/03/05 19:13:52;;;;;;;;;;;8.00;99.90;;;;;;8430042;28;20018;-72
2024/03/05 19:17:54;;;;;;;;;;;7.90;99.90;;;;;;8438513;28;19930;-72
2024/03/05 19:21:55;;;;;;;;;;;7.90;99.90;;;;;;8435313;27;19932;-71
2024/03/05 19:25:57;;;;;;;;;;;7.90;99.90;;;;;;8441599;28;19924;-72
2024/03/05 19:29:59;;;;;;;;;;;7.80;99.90;;;;;;8431303;27;19930;-72
2024/03/05 19:34:01;;;;;;;;;;;7.80;99.90;;;;;;8428255;28;19932;-72
2024/03/05 19:38:03;;;;;;;;;;;7.80;99.90;;;;;;8429398;28;19928;-72
2024/03/05 19:42:05;;;;;;;;;;;7.80;99.90;;;;;;8429814;28;19928;-72
2024/03/05 19:46:07;;;;;;;;;;;7.80;99.90;;;;;;8428589;28;19924;-72
2024/03/05 19:50:13;;;;;;;;;;;7.80;99.90;;;;;;8434889;28;19928;-72
2024/03/05 19:54:15;;;;;;;;;;;7.70;99.90;;;;;;8431922;27;19949;-72
2024/03/05 19:58:17;;;;;;;;;;;7.70;99.90;;;;;;8427903;28;20393;-72
2024/03/05 20:02:19;;;;;;;;;;;7.70;99.90;;;;;;8424543;28;19939;-72
2024/03/05 20:06:21;;;;;;;;;;;7.70;99.90;;;;;;8433411;28;19932;-72
2024/03/05 20:10:25;;;;;;;;;;;7.60;99.90;;;;;;8436005;28;19926;-72
2024/03/05 20:14:26;;;;;;;;;;;7.60;99.90;;;;;;8435400;28;19998;-72
2024/03/05 20:18:34;;;;;;;;;;;7.60;99.90;;;;;;8429307;28;19924;-72
2024/03/05 20:22:37;;;;;;;;;;;7.60;99.90;;;;;;8435036;28;19924;-72
2024/03/05 20:26:39;;;;;;;;;;;7.60;99.90;;;;;;8429735;28;20264;-72
2024/03/05 20:30:47;;;;;;;;;;;7.60;99.90;;;;;;8426434;28;19931;-72
2024/03/05 20:34:49;;;;;;;;;;;7.60;99.90;;;;;;8424293;28;20023;-72
2024/03/05 20:38:52;;;;;;;;;;;7.60;99.90;;;;;;8429827;28;19924;-72
2024/03/05 20:42:54;;;;;;;;;;;7.60;99.90;;;;;;8423846;28;19936;-72
2024/03/05 20:46:56;;;;;;;;;;;7.60;99.90;;;;;;8435129;28;19924;-72
2024/03/05 20:51:00;;;;;;;;;;;7.60;99.90;;;;;;8440613;28;19928;-72
2024/03/05 20:55:03;;;;;;;;;;;7.70;99.90;;;;;;8427036;28;19936;-72
2024/03/05 20:59:06;;;;;;;;;;;7.70;99.90;;;;;;8441374;27;20239;-72
2024/03/05 21:03:10;;;;;;;;;;;7.70;99.90;;;;;;8423277;28;20016;-72
2024/03/05 21:07:11;;;;;;;;;;;7.60;99.90;;;;;;8428681;28;19928;-72
2024/03/05 21:11:13;;;;;;;;;;;7.70;99.90;;;;;;8441341;28;19924;-72
2024/03/05 21:15:15;;;;;;;;;;;7.70;99.90;;;;;;8424626;27;20436;-72
2024/03/05 21:24:22;;;;;;;;;;;7.70;99.90;;;;;;8428367;28;19965;-72
2024/03/05 21:28:24;;;;;;;;;;;7.80;99.90;;;;;;8439530;28;19975;-72
2024/03/05 21:32:26;;;;;;;;;;;7.80;99.90;;;;;;8419242;28;19976;-72
2024/03/05 21:36:28;;;;;;;;;;;7.80;99.90;;;;;;8424042;28;19930;-72
2024/03/05 21:40:30;;;;;;;;;;;7.80;99.90;;;;;;8426688;28;19954;-72
2024/03/05 21:44:32;;;;;;;;;;;7.80;99.90;;;;;;8426441;28;19977;-72
2024/03/05 21:48:43;;;;;;;;;;;7.80;99.90;;;;;;8418549;28;19928;-72
2024/03/05 21:52:45;;;;;;;;;;;7.70;99.90;;;;;;8422248;28;19930;-72
2024/03/05 21:56:47;;;;;;;;;;;7.70;99.90;;;;;;8426015;28;19924;-72
2024/03/05 22:00:50;;;;;;;;;;;7.70;99.90;;;;;;8422987;28;19924;-72
2024/03/05 22:04:51;;;;;;;;;;;7.60;99.90;;;;;;8453382;28;19924;-72
2024/03/05 22:09:01;;;;;;;;;;;7.60;99.90;;;;;;8459943;28;19923;-72
2024/03/05 22:13:04;;;;;;;;;;;7.50;99.90;;;;;;8461587;27;20338;-71
2024/03/05 22:17:08;;;;;;;;;;;7.50;99.90;;;;;;8449089;28;19984;-72
2024/03/05 22:21:10;;;;;;;;;;;7.40;99.90;;;;;;8461553;27;19982;-72
2024/03/05 22:25:12;;;;;;;;;;;7.30;99.90;;;;;;8464386;28;20323;-72
2024/03/05 22:29:13;;;;;;;;;;;7.30;99.90;;;;;;8462107;28;20283;-72
2024/03/05 22:33:15;;;;;;;;;;;7.20;99.90;;;;;;8459421;28;20321;-72
2024/03/05 22:37:18;;;;;;;;;;;7.10;99.90;;;;;;8462576;28;19924;-72
2024/03/05 22:41:19;;;;;;;;;;;7.10;99.90;;;;;;8458044;28;19924;-72
2024/03/05 22:45:21;;;;;;;;;;;7.00;99.90;;;;;;8461677;28;19924;-72
2024/03/05 22:49:23;;;;;;;;;;;6.90;99.90;;;;;;8457805;27;19935;-72
2024/03/05 22:53:25;;;;;;;;;;;6.80;99.90;;;;;;8460857;27;20383;-72
2024/03/05 22:57:27;;;;;;;;;;;6.70;99.90;;;;;;8462150;28;19949;-72
2024/03/05 23:01:28;;;;;;;;;;;6.60;99.90;;;;;;8457605;28;19923;-72
2024/03/05 23:05:30;;;;;;;;;;;6.50;99.90;;;;;;8460034;27;19924;-72
2024/03/05 23:09:34;;;;;;;;;;;6.40;99.90;;;;;;8461229;28;19934;-72
2024/03/05 23:13:36;;;;;;;;;;;6.30;99.90;;;;;;8458502;27;19924;-72
2024/03/05 23:17:38;;;;;;;;;;;6.20;99.90;;;;;;8451724;28;19927;-72
2024/03/05 23:21:40;;;;;;;;;;;6.20;99.90;;;;;;8454376;28;19996;-72
2024/03/05 23:25:42;;;;;;;;;;;6.10;99.90;;;;;;8460385;28;20264;-72
2024/03/05 23:29:46;;;;;;;;;;;6.10;99.90;;;;;;8451826;27;19938;-72
2024/03/05 23:33:48;;;;;;;;;;;6.00;99.90;;;;;;8456863;27;19924;-72
2024/03/05 23:37:49;;;;;;;;;;;6.00;99.90;;;;;;8457174;28;19924;-71
2024/03/05 23:41:51;;;;;;;;;;;5.90;99.90;;;;;;8457608;28;19924;-72
2024/03/05 23:45:56;;;;;;;;;;;5.80;99.90;;;;;;8458552;28;20329;-72
2024/03/05 23:49:58;;;;;;;;;;;5.70;99.90;;;;;;8456397;28;19923;-72
2024/03/05 23:54:00;;;;;;;19.88;12.07;;;5.70;99.90;;;;;;8453058;28;19924;-71
2024/03/05 23:58:02;;;;;;;21.10;11.63;;;5.60;99.90;;;;;;8457333;28;20051;-71
